createdAt,value
2018-11-22T00:00:49.556Z,0.00
2018-11-22T00:01:49.572Z,0.00
2018-11-22T00:02:49.594Z,0.00
2018-11-22T00:03:49.608Z,0.00
2018-11-22T00:04:49.625Z,0.00
2018-11-22T00:05:49.634Z,0.00
2018-11-22T00:06:49.671Z,0.00
2018-11-22T00:07:49.676Z,0.00
2018-11-22T00:08:49.691Z,0.00
2018-11-22T00:09:49.707Z,0.00
2018-11-22T00:10:49.728Z,0.00
2018-11-22T00:11:49.742Z,0.00
2018-11-22T00:12:49.767Z,0.00
2018-11-22T00:13:49.780Z,0.00
2018-11-22T00:14:49.795Z,0.00
2018-11-22T00:15:49.812Z,0.00
2018-11-22T00:16:49.828Z,0.00
2018-11-22T00:17:49.838Z,0.00
2018-11-22T00:18:49.861Z,0.00
2018-11-22T00:19:49.872Z,0.00
2018-11-22T00:20:49.891Z,0.00
2018-11-22T00:21:49.907Z,0.00
2018-11-22T00:22:49.928Z,0.00
2018-11-22T00:23:49.959Z,0.00
2018-11-22T00:24:49.966Z,0.00
2018-11-22T00:25:49.976Z,0.00
2018-11-22T00:26:49.994Z,0.00
2018-11-22T00:27:50.051Z,0.00
2018-11-22T00:28:50.224Z,0.00
2018-11-22T00:29:50.043Z,0.00
2018-11-22T00:30:50.055Z,0.00
2018-11-22T00:31:50.079Z,0.00
2018-11-22T00:32:50.091Z,0.00
2018-11-22T00:33:50.107Z,0.00
2018-11-22T00:34:50.123Z,0.00
2018-11-22T00:35:50.135Z,0.00
2018-11-22T00:36:50.157Z,0.00
2018-11-22T00:37:50.176Z,0.00
2018-11-22T00:38:50.199Z,0.00
2018-11-22T00:39:50.207Z,0.00
2018-11-22T00:40:50.231Z,0.00
2018-11-22T00:41:50.239Z,0.00
2018-11-22T00:42:50.263Z,0.00
2018-11-22T00:43:50.275Z,0.00
2018-11-22T00:44:50.294Z,0.00
2018-11-22T00:45:50.307Z,0.00
2018-11-22T00:46:50.326Z,0.00
2018-11-22T00:47:50.343Z,0.00
2018-11-22T00:48:50.359Z,0.00
2018-11-22T00:49:50.386Z,0.00
2018-11-22T00:50:50.390Z,0.00
2018-11-22T00:51:50.415Z,0.00
2018-11-22T00:52:50.439Z,0.00
2018-11-22T00:53:50.443Z,0.00
2018-11-22T00:54:50.466Z,0.00
2018-11-22T00:55:50.478Z,0.00
2018-11-22T00:56:50.523Z,0.00
2018-11-22T00:57:50.515Z,0.00
2018-11-22T00:58:50.535Z,0.00
2018-11-22T00:59:50.554Z,0.00
2018-11-22T01:00:50.567Z,0.00
2018-11-22T01:01:50.583Z,0.00
2018-11-22T01:02:50.595Z,0.00
2018-11-22T01:03:50.610Z,0.00
2018-11-22T01:04:50.627Z,0.00
2018-11-22T01:05:50.647Z,0.00
2018-11-22T01:06:50.666Z,0.00
2018-11-22T01:07:50.678Z,0.00
2018-11-22T01:08:50.698Z,0.00
2018-11-22T01:09:50.715Z,0.00
2018-11-22T01:10:50.738Z,0.00
2018-11-22T01:11:50.754Z,0.00
2018-11-22T01:12:50.771Z,0.00
2018-11-22T01:13:50.783Z,0.00
2018-11-22T01:14:50.803Z,0.00
2018-11-22T01:15:50.825Z,0.00
2018-11-22T01:16:50.830Z,0.00
2018-11-22T01:17:50.855Z,0.00
2018-11-22T01:18:50.875Z,0.00
2018-11-22T01:19:50.885Z,0.00
2018-11-22T01:20:50.907Z,0.00
2018-11-22T01:21:50.923Z,0.00
2018-11-22T01:22:50.941Z,0.00
2018-11-22T01:23:50.958Z,0.00
2018-11-22T01:24:50.975Z,0.00
2018-11-22T01:25:51.059Z,0.00
2018-11-22T01:26:51.011Z,0.00
2018-11-22T01:27:51.027Z,0.00
2018-11-22T01:28:51.041Z,0.00
2018-11-22T01:29:51.059Z,0.00
2018-11-22T01:30:51.284Z,0.00
2018-11-22T01:31:51.299Z,0.00
2018-11-22T01:32:51.116Z,0.00
2018-11-22T01:33:51.127Z,0.00
2018-11-22T01:34:51.143Z,0.00
2018-11-22T01:35:51.159Z,0.00
2018-11-22T01:36:51.175Z,0.00
2018-11-22T01:37:51.195Z,0.00
2018-11-22T01:38:51.211Z,0.00
2018-11-22T01:39:51.227Z,0.00
2018-11-22T01:40:51.244Z,0.00
2018-11-22T01:41:51.272Z,0.00
2018-11-22T01:42:51.276Z,0.00
2018-11-22T01:43:51.296Z,0.00
2018-11-22T01:44:51.317Z,0.00
2018-11-22T01:45:51.331Z,0.00
2018-11-22T01:46:51.362Z,0.00
2018-11-22T01:47:51.367Z,0.00
2018-11-22T01:48:51.383Z,0.00
2018-11-22T01:49:51.400Z,0.00
2018-11-22T01:50:51.422Z,0.00
2018-11-22T01:51:51.436Z,0.00
2018-11-22T01:52:51.449Z,0.00
2018-11-22T01:53:51.477Z,0.00
2018-11-22T01:54:51.485Z,0.00
2018-11-22T01:55:51.504Z,0.00
2018-11-22T01:56:51.520Z,0.00
2018-11-22T01:57:51.620Z,0.00
2018-11-22T01:58:51.556Z,0.00
2018-11-22T01:59:51.576Z,0.00
2018-11-22T02:00:51.591Z,0.00
2018-11-22T02:01:51.608Z,0.00
2018-11-22T02:02:51.622Z,0.00
2018-11-22T02:03:51.712Z,0.00
2018-11-22T02:04:51.656Z,0.00
2018-11-22T02:05:51.672Z,0.00
2018-11-22T02:06:51.684Z,0.00
2018-11-22T02:07:51.706Z,0.00
2018-11-22T02:08:51.727Z,0.00
2018-11-22T02:09:51.737Z,0.00
2018-11-22T02:10:51.755Z,0.00
2018-11-22T02:11:51.776Z,0.00
2018-11-22T02:12:51.788Z,0.00
2018-11-22T02:13:51.808Z,0.00
2018-11-22T02:14:51.820Z,0.00
2018-11-22T02:15:51.844Z,0.00
2018-11-22T02:16:51.855Z,0.00
2018-11-22T02:17:51.881Z,0.00
2018-11-22T02:18:51.892Z,0.00
2018-11-22T02:19:51.908Z,0.00
2018-11-22T02:20:51.924Z,0.00
2018-11-22T02:21:51.943Z,0.00
2018-11-22T02:22:51.957Z,0.00
2018-11-22T02:23:51.976Z,0.00
2018-11-22T02:24:51.997Z,0.00
2018-11-22T02:25:52.008Z,0.00
2018-11-22T02:26:52.068Z,0.00
2018-11-22T02:27:52.041Z,0.00
2018-11-22T02:28:52.064Z,0.00
2018-11-22T02:29:52.071Z,0.00
2018-11-22T02:30:52.100Z,0.00
2018-11-22T02:31:52.115Z,0.00
2018-11-22T02:32:52.133Z,0.00
2018-11-22T02:33:52.148Z,0.00
2018-11-22T02:34:52.166Z,0.00
2018-11-22T02:35:52.181Z,0.00
2018-11-22T02:36:52.201Z,0.00
2018-11-22T02:37:52.208Z,0.00
2018-11-22T02:38:52.234Z,0.00
2018-11-22T02:39:52.244Z,0.00
2018-11-22T02:40:52.264Z,0.00
2018-11-22T02:41:52.284Z,0.00
2018-11-22T02:42:52.301Z,0.00
2018-11-22T02:43:52.311Z,0.00
2018-11-22T02:44:52.333Z,0.00
2018-11-22T02:45:52.349Z,0.00
2018-11-22T02:46:52.369Z,0.00
2018-11-22T02:47:52.393Z,0.00
2018-11-22T02:48:52.400Z,0.00
2018-11-22T02:49:52.416Z,0.00
2018-11-22T02:50:52.437Z,0.00
2018-11-22T02:51:52.452Z,0.00
2018-11-22T02:52:52.477Z,0.00
2018-11-22T02:53:52.494Z,0.00
2018-11-22T02:54:52.509Z,0.00
2018-11-22T02:55:52.521Z,0.00
2018-11-22T02:56:52.545Z,0.00
2018-11-22T02:57:52.561Z,0.00
2018-11-22T02:58:52.577Z,0.00
2018-11-22T02:59:52.604Z,0.00
2018-11-22T03:00:52.617Z,0.00
2018-11-22T03:01:52.673Z,0.00
2018-11-22T03:02:52.641Z,0.00
2018-11-22T03:03:52.656Z,0.00
2018-11-22T03:04:52.672Z,0.00
2018-11-22T03:05:52.692Z,0.00
2018-11-22T03:06:52.715Z,0.00
2018-11-22T03:07:52.725Z,0.00
2018-11-22T03:08:52.744Z,0.00
2018-11-22T03:09:52.765Z,0.00
2018-11-22T03:10:52.780Z,0.00
2018-11-22T03:11:52.794Z,0.00
2018-11-22T03:12:52.817Z,0.00
2018-11-22T03:13:52.833Z,0.00
2018-11-22T03:14:52.857Z,0.00
2018-11-22T03:15:52.861Z,0.00
2018-11-22T03:16:52.891Z,0.00
2018-11-22T03:17:52.900Z,0.00
2018-11-22T03:18:52.917Z,0.00
2018-11-22T03:19:52.937Z,0.00
2018-11-22T03:20:52.953Z,0.00
2018-11-22T03:21:52.969Z,0.00
2018-11-22T03:22:52.990Z,0.00
2018-11-22T03:23:53.006Z,0.00
2018-11-22T03:24:53.021Z,0.00
2018-11-22T03:25:53.042Z,0.00
2018-11-22T03:26:53.061Z,0.00
2018-11-22T03:27:53.073Z,0.00
2018-11-22T03:28:53.130Z,0.00
2018-11-22T03:29:53.105Z,0.00
2018-11-22T03:30:53.122Z,0.00
2018-11-22T03:31:53.222Z,0.00
2018-11-22T03:32:53.161Z,0.00
2018-11-22T03:33:53.184Z,0.00
2018-11-22T03:34:53.189Z,0.00
2018-11-22T03:35:53.210Z,0.00
2018-11-22T03:36:53.226Z,0.00
2018-11-22T03:37:53.241Z,0.00
2018-11-22T03:38:53.262Z,0.00
2018-11-22T03:39:53.277Z,0.00
2018-11-22T03:40:53.293Z,0.00
2018-11-22T03:41:53.307Z,0.00
2018-11-22T03:42:53.338Z,0.00
2018-11-22T03:43:53.346Z,0.00
2018-11-22T03:44:53.357Z,0.00
2018-11-22T03:45:53.384Z,0.00
2018-11-22T03:46:53.399Z,0.00
2018-11-22T03:47:53.407Z,0.00
2018-11-22T03:48:53.427Z,0.00
2018-11-22T03:49:53.444Z,0.00
2018-11-22T03:50:53.466Z,0.00
2018-11-22T03:51:53.474Z,0.00
2018-11-22T03:52:53.495Z,0.00
2018-11-22T03:53:53.514Z,0.00
2018-11-22T03:54:53.526Z,0.00
2018-11-22T03:55:53.542Z,0.00
2018-11-22T03:56:53.554Z,0.00
2018-11-22T03:57:53.575Z,0.00
2018-11-22T03:58:53.598Z,0.00
2018-11-22T03:59:53.663Z,0.00
2018-11-22T04:00:53.667Z,0.00
2018-11-22T04:01:53.666Z,0.00
2018-11-22T04:02:53.666Z,0.00
2018-11-22T04:03:53.727Z,0.00
2018-11-22T04:06:01.631Z,0.00
2018-11-22T04:06:53.765Z,0.00
2018-11-22T04:07:53.747Z,0.00
2018-11-22T04:08:53.767Z,0.00
2018-11-22T04:09:53.783Z,0.00
2018-11-22T04:10:53.799Z,0.00
2018-11-22T04:11:53.867Z,0.00
2018-11-22T04:12:53.850Z,0.00
2018-11-22T04:13:53.852Z,0.00
2018-11-22T04:14:53.867Z,0.00
2018-11-22T04:15:53.888Z,0.00
2018-11-22T04:16:53.899Z,0.00
2018-11-22T04:17:53.917Z,0.00
2018-11-22T04:18:53.984Z,0.00
2018-11-22T04:19:53.955Z,0.00
2018-11-22T04:20:53.973Z,0.00
2018-11-22T04:21:53.983Z,0.00
2018-11-22T04:22:54.005Z,0.00
2018-11-22T04:23:54.016Z,0.00
2018-11-22T04:24:54.081Z,0.00
2018-11-22T04:25:54.060Z,0.00
2018-11-22T04:26:54.068Z,0.00
2018-11-22T04:27:54.083Z,0.00
2018-11-22T04:28:54.100Z,0.00
2018-11-22T04:29:54.125Z,0.00
2018-11-22T04:30:54.157Z,0.00
2018-11-22T04:31:54.156Z,0.00
2018-11-22T04:32:54.184Z,0.00
2018-11-22T04:33:54.192Z,0.00
2018-11-22T04:34:54.204Z,0.00
2018-11-22T04:35:54.220Z,0.00
2018-11-22T04:36:54.303Z,0.00
2018-11-22T04:37:54.257Z,0.00
2018-11-22T04:38:54.267Z,0.00
2018-11-22T04:39:54.291Z,0.00
2018-11-22T04:40:54.309Z,0.00
2018-11-22T04:41:54.325Z,0.00
2018-11-22T04:42:54.345Z,0.00
2018-11-22T04:43:54.360Z,0.00
2018-11-22T04:44:54.383Z,0.00
2018-11-22T04:45:54.394Z,0.00
2018-11-22T04:46:54.412Z,0.00
2018-11-22T04:47:54.443Z,0.00
2018-11-22T04:48:54.478Z,0.00
2018-11-22T04:49:54.456Z,0.00
2018-11-22T04:50:54.473Z,0.00
2018-11-22T04:51:54.491Z,0.00
2018-11-22T04:52:54.510Z,0.00
2018-11-22T04:53:54.525Z,0.00
2018-11-22T04:54:54.612Z,0.00
2018-11-22T04:55:54.561Z,0.00
2018-11-22T04:56:54.581Z,0.00
2018-11-22T04:57:57.919Z,0.00
2018-11-22T04:58:54.605Z,0.00
2018-11-22T04:59:54.625Z,0.00
2018-11-22T05:00:54.642Z,0.00
2018-11-22T05:01:54.661Z,0.00
2018-11-22T05:02:54.678Z,0.00
2018-11-22T05:03:54.693Z,0.00
2018-11-22T05:04:54.713Z,0.00
2018-11-22T05:05:54.732Z,0.00
2018-11-22T05:06:54.745Z,0.00
2018-11-22T05:07:54.761Z,0.00
2018-11-22T05:08:54.777Z,0.00
2018-11-22T05:09:54.805Z,0.00
2018-11-22T05:10:54.815Z,0.00
2018-11-22T05:11:54.830Z,0.00
2018-11-22T05:12:54.845Z,0.00
2018-11-22T05:13:54.858Z,0.00
2018-11-22T05:14:54.881Z,0.00
2018-11-22T05:15:54.896Z,0.00
2018-11-22T05:16:54.914Z,0.00
2018-11-22T05:17:54.937Z,0.00
2018-11-22T05:18:55.067Z,0.00
2018-11-22T05:19:54.966Z,0.00
2018-11-22T05:20:54.982Z,0.00
2018-11-22T05:21:54.998Z,0.00
2018-11-22T05:22:55.017Z,0.00
2018-11-22T05:23:55.031Z,0.00
2018-11-22T05:24:55.051Z,0.00
2018-11-22T05:25:55.067Z,0.00
2018-11-22T05:26:55.083Z,0.00
2018-11-22T05:27:55.099Z,0.00
2018-11-22T05:28:55.114Z,0.00
2018-11-22T05:29:55.143Z,0.00
2018-11-22T05:30:55.152Z,0.00
2018-11-22T05:31:55.171Z,0.00
2018-11-22T05:32:55.186Z,0.00
2018-11-22T05:33:55.202Z,0.00
2018-11-22T05:34:55.223Z,0.00
2018-11-22T05:35:55.239Z,0.00
2018-11-22T05:36:55.255Z,0.00
2018-11-22T05:37:55.270Z,0.00
2018-11-22T05:38:55.295Z,0.00
2018-11-22T05:39:55.299Z,0.00
2018-11-22T05:40:55.319Z,0.00
2018-11-22T05:41:55.339Z,0.00
2018-11-22T05:42:55.355Z,0.00
2018-11-22T05:43:55.372Z,0.00
2018-11-22T05:44:55.388Z,0.00
2018-11-22T05:45:55.399Z,0.00
2018-11-22T05:46:55.420Z,0.00
2018-11-22T05:47:55.443Z,0.00
2018-11-22T05:48:55.460Z,0.00
2018-11-22T05:49:55.472Z,0.00
2018-11-22T05:50:55.487Z,0.00
2018-11-22T05:51:55.507Z,0.00
2018-11-22T05:52:55.527Z,0.00
2018-11-22T05:53:55.597Z,0.00
2018-11-22T05:54:55.558Z,0.00
2018-11-22T05:55:55.573Z,0.00
2018-11-22T05:56:55.599Z,0.00
2018-11-22T05:57:55.613Z,0.00
2018-11-22T05:58:55.644Z,0.00
2018-11-22T05:59:55.640Z,0.00
2018-11-22T06:00:55.656Z,0.00
2018-11-22T06:01:55.680Z,0.00
2018-11-22T06:02:55.696Z,0.00
2018-11-22T06:03:55.708Z,0.00
2018-11-22T06:04:55.767Z,0.00
2018-11-22T06:05:55.744Z,0.00
2018-11-22T06:06:55.758Z,0.00
2018-11-22T06:07:55.773Z,0.00
2018-11-22T06:08:55.784Z,0.00
2018-11-22T06:09:55.807Z,0.00
2018-11-22T06:10:55.868Z,0.00
2018-11-22T06:11:55.836Z,0.00
2018-11-22T06:12:55.853Z,0.00
2018-11-22T06:13:55.871Z,0.00
2018-11-22T06:14:55.888Z,0.00
2018-11-22T06:15:55.915Z,0.00
2018-11-22T06:16:55.956Z,0.00
2018-11-22T06:17:55.942Z,0.00
2018-11-22T06:18:55.960Z,0.00
2018-11-22T06:19:55.973Z,0.00
2018-11-22T06:20:55.989Z,0.00
2018-11-22T06:21:56.009Z,0.00
2018-11-22T06:22:56.024Z,0.00
2018-11-22T06:23:56.041Z,0.00
2018-11-22T06:24:56.169Z,0.00
2018-11-22T06:25:56.072Z,0.00
2018-11-22T06:26:56.089Z,0.00
2018-11-22T06:27:56.140Z,0.00
2018-11-22T06:28:56.126Z,0.00
2018-11-22T06:29:56.136Z,0.00
2018-11-22T06:30:56.157Z,0.00
2018-11-22T06:31:56.170Z,0.00
2018-11-22T06:32:56.193Z,0.00
2018-11-22T06:33:56.234Z,0.00
2018-11-22T06:34:56.221Z,0.00
2018-11-22T06:35:56.241Z,0.00
2018-11-22T06:36:56.253Z,0.00
2018-11-22T06:37:56.270Z,0.00
2018-11-22T06:38:56.290Z,0.00
2018-11-22T06:39:56.330Z,0.00
2018-11-22T06:40:56.328Z,0.00
2018-11-22T06:41:56.345Z,0.00
2018-11-22T06:42:56.361Z,0.00
2018-11-22T06:43:56.374Z,0.00
2018-11-22T06:44:56.390Z,0.00
2018-11-22T06:45:56.410Z,0.00
2018-11-22T06:46:56.430Z,0.00
2018-11-22T06:47:56.442Z,0.00
2018-11-22T06:48:56.461Z,0.00
2018-11-22T06:49:56.474Z,0.00
2018-11-22T06:50:58.310Z,0.00
2018-11-22T06:51:56.506Z,0.00
2018-11-22T06:52:56.520Z,0.00
2018-11-22T06:53:56.543Z,0.00
2018-11-22T06:54:57.484Z,0.00
2018-11-22T06:55:56.573Z,0.00
2018-11-22T06:56:56.586Z,0.00
2018-11-22T06:57:56.601Z,0.00
2018-11-22T06:58:56.618Z,0.00
2018-11-22T06:59:56.634Z,0.00
2018-11-22T07:00:56.654Z,0.00
2018-11-22T07:01:56.667Z,4.00
2018-11-22T07:02:56.701Z,4.00
2018-11-22T07:03:56.707Z,4.00
2018-11-22T07:04:56.718Z,4.00
2018-11-22T07:05:56.730Z,0.00
2018-11-22T07:06:56.750Z,0.00
2018-11-22T07:07:56.767Z,4.00
2018-11-22T07:08:56.782Z,4.00
2018-11-22T07:09:56.798Z,4.00
2018-11-22T07:10:56.822Z,4.00
2018-11-22T07:11:56.835Z,4.00
2018-11-22T07:12:56.856Z,4.00
2018-11-22T07:13:56.863Z,8.00
2018-11-22T07:14:56.911Z,8.00
2018-11-22T07:15:56.907Z,8.00
2018-11-22T07:16:56.910Z,8.00
2018-11-22T07:17:56.935Z,8.00
2018-11-22T07:18:56.949Z,16.00
2018-11-22T07:19:56.983Z,16.00
2018-11-22T07:20:57.006Z,16.00
2018-11-22T07:21:57.013Z,16.00
2018-11-22T07:22:57.015Z,20.00
2018-11-22T07:23:57.045Z,24.00
2018-11-22T07:24:57.051Z,24.00
2018-11-22T07:25:57.062Z,28.00
2018-11-22T07:26:57.082Z,28.00
2018-11-22T07:27:57.103Z,32.00
2018-11-22T07:28:57.111Z,36.00
2018-11-22T07:29:57.134Z,40.00
2018-11-22T07:30:57.159Z,44.00
2018-11-22T07:31:57.179Z,48.00
2018-11-22T07:32:57.187Z,48.00
2018-11-22T07:33:57.191Z,56.00
2018-11-22T07:34:57.211Z,60.00
2018-11-22T07:35:57.227Z,68.00
2018-11-22T07:36:57.243Z,72.00
2018-11-22T07:37:57.314Z,80.00
2018-11-22T07:38:57.275Z,88.00
2018-11-22T07:39:57.299Z,92.00
2018-11-22T07:40:57.307Z,96.00
2018-11-22T07:41:57.327Z,104.00
2018-11-22T07:42:57.347Z,112.00
2018-11-22T07:43:57.399Z,116.00
2018-11-22T07:44:57.374Z,128.00
2018-11-22T07:45:57.398Z,136.00
2018-11-22T07:46:57.419Z,144.00
2018-11-22T07:47:57.623Z,148.00
2018-11-22T07:48:57.439Z,156.00
2018-11-22T07:49:57.450Z,160.00
2018-11-22T07:50:57.467Z,164.00
2018-11-22T07:51:57.491Z,168.00
2018-11-22T07:52:57.506Z,176.00
2018-11-22T07:53:57.532Z,180.00
2018-11-22T07:54:57.535Z,188.00
2018-11-22T07:55:57.627Z,200.00
2018-11-22T07:56:57.570Z,212.00
2018-11-22T07:57:57.588Z,224.00
2018-11-22T07:58:57.604Z,232.00
2018-11-22T07:59:57.619Z,240.00
2018-11-22T08:00:57.644Z,256.00
2018-11-22T08:01:57.651Z,272.00
2018-11-22T08:02:57.675Z,292.00
2018-11-22T08:04:57.708Z,336.00
2018-11-22T08:05:57.720Z,352.00
2018-11-22T08:06:57.760Z,368.00
2018-11-22T08:07:57.751Z,380.00
2018-11-22T08:08:57.768Z,384.00
2018-11-22T08:09:57.792Z,388.00
2018-11-22T08:10:57.801Z,388.00
2018-11-22T08:11:57.824Z,400.00
2018-11-22T08:12:57.895Z,412.00
2018-11-22T08:13:57.856Z,424.00
2018-11-22T08:14:57.865Z,440.00
2018-11-22T08:15:57.892Z,460.00
2018-11-22T08:16:57.896Z,484.00
2018-11-22T08:17:57.914Z,496.00
2018-11-22T08:18:57.964Z,492.00
2018-11-22T08:19:57.949Z,480.00
2018-11-22T08:21:04.556Z,476.00
2018-11-22T08:21:57.986Z,476.00
2018-11-22T08:22:57.996Z,468.00
2018-11-22T08:23:58.020Z,456.00
2018-11-22T08:24:58.032Z,448.00
2018-11-22T08:25:58.048Z,444.00
2018-11-22T08:26:58.068Z,464.00
2018-11-22T08:27:58.076Z,464.00
2018-11-22T08:28:58.094Z,464.00
2018-11-22T08:29:58.117Z,476.00
2018-11-22T08:30:58.136Z,492.00
2018-11-22T08:31:58.152Z,524.00
2018-11-22T08:32:58.165Z,556.00
2018-11-22T08:33:58.179Z,588.00
2018-11-22T08:34:58.196Z,624.00
2018-11-22T08:35:58.220Z,664.00
2018-11-22T08:36:58.229Z,704.00
2018-11-22T08:37:58.257Z,744.00
2018-11-22T08:38:58.269Z,780.00
2018-11-22T08:39:58.278Z,820.00
2018-11-22T08:40:58.304Z,860.00
2018-11-22T08:41:58.326Z,888.00
2018-11-22T08:42:58.333Z,916.00
2018-11-22T08:43:58.344Z,936.00
2018-11-22T08:44:58.372Z,968.00
2018-11-22T08:45:58.392Z,992.00
2018-11-22T08:46:58.401Z,1020.00
2018-11-22T08:47:58.414Z,1052.00
2018-11-22T08:48:58.433Z,1076.00
2018-11-22T08:49:58.448Z,1108.00
2018-11-22T08:50:58.468Z,1124.00
2018-11-22T08:51:58.479Z,1160.00
2018-11-22T08:52:58.502Z,1208.00
2018-11-22T08:53:58.525Z,1244.00
2018-11-22T08:54:58.541Z,1296.00
2018-11-22T08:55:58.553Z,1316.00
2018-11-22T08:56:58.573Z,1332.00
2018-11-22T08:57:58.585Z,1348.00
2018-11-22T08:58:58.674Z,1384.00
2018-11-22T08:59:58.626Z,1424.00
2018-11-22T09:00:58.633Z,1500.00
2018-11-22T09:01:58.659Z,1584.00
2018-11-22T09:02:58.673Z,1672.00
2018-11-22T09:03:58.692Z,1640.00
2018-11-22T09:04:58.705Z,1544.00
2018-11-22T09:05:58.728Z,1740.00
2018-11-22T09:06:58.743Z,1828.00
2018-11-22T09:07:58.762Z,1936.00
2018-11-22T09:08:58.777Z,1956.00
2018-11-22T09:10:02.444Z,2100.00
2018-11-22T09:10:58.813Z,1920.00
2018-11-22T09:11:58.829Z,1936.00
2018-11-22T09:12:58.841Z,1928.00
2018-11-22T09:13:58.858Z,1996.00
2018-11-22T09:14:58.880Z,1992.00
2018-11-22T09:15:58.933Z,1912.00
2018-11-22T09:16:58.926Z,1896.00
2018-11-22T09:17:58.937Z,1940.00
2018-11-22T09:18:58.995Z,1996.00
2018-11-22T09:19:58.966Z,2072.00
2018-11-22T09:20:58.988Z,1952.00
2018-11-22T09:21:59.007Z,1880.00
2018-11-22T09:22:59.017Z,1868.00
2018-11-22T09:23:59.041Z,1852.00
2018-11-22T09:24:59.057Z,1820.00
2018-11-22T09:25:59.079Z,1788.00
2018-11-22T09:26:59.165Z,1776.00
2018-11-22T09:27:59.102Z,1772.00
2018-11-22T09:28:59.127Z,1780.00
2018-11-22T09:29:59.149Z,1820.00
2018-11-22T09:30:59.165Z,1884.00
2018-11-22T09:31:59.182Z,1964.00
2018-11-22T09:32:59.213Z,2068.00
2018-11-22T09:33:59.212Z,2136.00
2018-11-22T09:34:59.227Z,2152.00
2018-11-22T09:35:59.250Z,2100.00
2018-11-22T09:36:59.268Z,2116.00
2018-11-22T09:37:59.285Z,2148.00
2018-11-22T09:38:59.295Z,2236.00
2018-11-22T09:39:59.320Z,2324.00
2018-11-22T09:40:59.331Z,2468.00
2018-11-22T09:41:59.356Z,2468.00
2018-11-22T09:42:59.373Z,2576.00
2018-11-22T09:43:59.404Z,2772.00
2018-11-22T09:44:59.401Z,2908.00
2018-11-22T09:45:59.431Z,3152.00
2018-11-22T09:46:59.439Z,3416.00
2018-11-22T09:47:59.460Z,3200.00
2018-11-22T09:48:59.472Z,3148.00
2018-11-22T09:49:59.492Z,3160.00
2018-11-22T09:50:59.512Z,3020.00
2018-11-22T09:51:59.541Z,3440.00
2018-11-22T09:52:59.549Z,3688.00
2018-11-22T09:53:59.569Z,3352.00
2018-11-22T09:54:59.583Z,4444.00
2018-11-22T09:55:59.600Z,5216.00
2018-11-22T09:56:59.617Z,5080.00
2018-11-22T09:57:59.634Z,4796.00
2018-11-22T09:58:59.730Z,5324.00
2018-11-22T09:59:59.677Z,5884.00
2018-11-22T10:00:59.689Z,6440.00
2018-11-22T10:01:59.708Z,6436.00
2018-11-22T10:02:59.829Z,4956.00
2018-11-22T10:03:59.744Z,5076.00
2018-11-22T10:04:59.923Z,4856.00
2018-11-22T10:05:59.779Z,5204.00
2018-11-22T10:06:59.865Z,4904.00
2018-11-22T10:07:59.817Z,5124.00
2018-11-22T10:08:59.834Z,4304.00
2018-11-22T10:09:59.853Z,4236.00
2018-11-22T10:10:59.872Z,4392.00
2018-11-22T10:11:59.888Z,3920.00
2018-11-22T10:12:59.909Z,3940.00
2018-11-22T10:13:59.927Z,3224.00
2018-11-22T10:14:59.948Z,3252.00
2018-11-22T10:15:59.965Z,3404.00
2018-11-22T10:17:00.050Z,3360.00
2018-11-22T10:18:00.008Z,3264.00
2018-11-22T10:19:00.028Z,3200.00
2018-11-22T10:20:00.048Z,3168.00
2018-11-22T10:21:00.089Z,2860.00
2018-11-22T10:22:00.085Z,2296.00
2018-11-22T10:23:00.098Z,1968.00
2018-11-22T10:24:00.136Z,1700.00
2018-11-22T10:25:00.155Z,1572.00
2018-11-22T10:26:00.161Z,1512.00
2018-11-22T10:27:00.173Z,1540.00
2018-11-22T10:28:00.203Z,1620.00
2018-11-22T10:30:00.348Z,1784.00
2018-11-22T10:31:00.253Z,1876.00
2018-11-22T10:32:00.269Z,2004.00
2018-11-22T10:33:00.325Z,2144.00
2018-11-22T10:34:00.313Z,2380.00
2018-11-22T10:35:00.341Z,2720.00
2018-11-22T10:36:00.349Z,2936.00
2018-11-22T10:37:00.370Z,2580.00
2018-11-22T10:38:00.531Z,2408.00
2018-11-22T10:39:00.444Z,2616.00
2018-11-22T10:40:00.457Z,2304.00
2018-11-22T10:43:00.469Z,1856.00
2018-11-22T10:44:00.517Z,1736.00
2018-11-22T10:45:00.507Z,1564.00
2018-11-22T10:46:00.570Z,1420.00
2018-11-22T10:47:00.673Z,1272.00
2018-11-22T10:48:00.607Z,1112.00
2018-11-22T10:49:00.578Z,944.00
2018-11-22T10:50:00.651Z,792.00
2018-11-22T10:52:00.671Z,528.00
2018-11-22T10:53:00.724Z,444.00
2018-11-22T10:55:00.699Z,336.00
2018-11-22T10:56:00.711Z,308.00
2018-11-22T10:57:00.758Z,284.00
2018-11-22T10:58:00.788Z,260.00
2018-11-22T10:59:00.767Z,256.00
2018-11-22T11:00:00.843Z,264.00
2018-11-22T11:01:00.845Z,248.00
2018-11-22T11:03:00.859Z,236.00
2018-11-22T11:04:00.873Z,304.00
2018-11-22T11:05:00.874Z,420.00
2018-11-22T11:06:00.895Z,544.00
2018-11-22T11:07:00.916Z,632.00
2018-11-22T11:08:00.923Z,708.00
2018-11-22T11:09:00.948Z,916.00
2018-11-22T11:14:01.095Z,2228.00
2018-11-22T11:16:01.081Z,2408.00
2018-11-22T11:18:01.105Z,2608.00
2018-11-22T11:19:01.172Z,2684.00
2018-11-22T11:21:01.168Z,3020.00
2018-11-22T11:22:01.211Z,3188.00
2018-11-22T11:23:01.256Z,3340.00
2018-11-22T11:24:01.272Z,3368.00
2018-11-22T11:26:01.303Z,3636.00
2018-11-22T11:28:01.373Z,4144.00
2018-11-22T11:29:01.347Z,4176.00
2018-11-22T11:30:01.314Z,4292.00
2018-11-22T11:31:01.333Z,4344.00
2018-11-22T11:33:01.457Z,4612.00
2018-11-22T11:34:01.452Z,4332.00
2018-11-22T11:36:01.476Z,4232.00
2018-11-22T11:37:01.463Z,3636.00
2018-11-22T11:40:01.563Z,3572.00
2018-11-22T11:41:01.515Z,4392.00
2018-11-22T11:42:01.549Z,4128.00
2018-11-22T11:44:01.635Z,3920.00
2018-11-22T11:45:01.589Z,3548.00
2018-11-22T11:46:01.608Z,3364.00
2018-11-22T11:47:01.629Z,3584.00
2018-11-22T11:48:01.652Z,4684.00
2018-11-22T11:49:01.668Z,5056.00
2018-11-22T11:50:01.681Z,5992.00
2018-11-22T11:51:01.701Z,5760.00
2018-11-22T11:52:01.724Z,6136.00
2018-11-22T11:53:01.771Z,5776.00
2018-11-22T11:54:01.756Z,6096.00
2018-11-22T11:55:01.780Z,6220.00
2018-11-22T11:56:01.799Z,5276.00
2018-11-22T11:57:01.821Z,4920.00
2018-11-22T11:58:01.836Z,4964.00
2018-11-22T11:59:01.860Z,4916.00
2018-11-22T12:00:01.877Z,4972.00
2018-11-22T12:01:01.908Z,4612.00
2018-11-22T12:02:01.917Z,5076.00
2018-11-22T12:03:01.933Z,4940.00
2018-11-22T12:04:01.948Z,5164.00
2018-11-22T12:05:01.965Z,5264.00
2018-11-22T12:06:01.990Z,5120.00
2018-11-22T12:07:02.025Z,4428.00
2018-11-22T12:08:02.030Z,3880.00
2018-11-22T12:09:02.049Z,3800.00
2018-11-22T12:10:02.065Z,3864.00
2018-11-22T12:11:02.090Z,3544.00
2018-11-22T12:12:02.128Z,3456.00
2018-11-22T12:13:02.129Z,3412.00
2018-11-22T12:14:02.144Z,3480.00
2018-11-22T12:15:02.180Z,3624.00
2018-11-22T12:16:02.181Z,3940.00
2018-11-22T12:17:02.252Z,4304.00
2018-11-22T12:18:02.305Z,4324.00
2018-11-22T12:19:02.237Z,4376.00
2018-11-22T12:20:02.258Z,4240.00
2018-11-22T12:21:02.284Z,4052.00
2018-11-22T12:22:02.304Z,4236.00
2018-11-22T12:23:02.319Z,4144.00
2018-11-22T12:24:02.343Z,4344.00
2018-11-22T12:25:02.360Z,4296.00
2018-11-22T12:26:02.421Z,4324.00
2018-11-22T12:27:02.433Z,4152.00
2018-11-22T12:28:02.417Z,4032.00
2018-11-22T12:29:02.581Z,4192.00
2018-11-22T12:30:02.452Z,4160.00
2018-11-22T12:31:06.502Z,4388.00
2018-11-22T12:32:02.497Z,4632.00
2018-11-22T12:33:02.517Z,4872.00
2018-11-22T12:34:02.527Z,4824.00
2018-11-22T12:35:02.637Z,4828.00
2018-11-22T12:36:02.566Z,4556.00
2018-11-22T12:37:02.593Z,4392.00
2018-11-22T12:38:02.605Z,4312.00
2018-11-22T12:39:02.628Z,4120.00
2018-11-22T12:40:02.647Z,3844.00
2018-11-22T12:41:02.671Z,3772.00
2018-11-22T12:42:02.689Z,3664.00
2018-11-22T12:43:02.709Z,3616.00
2018-11-22T12:44:02.722Z,3676.00
2018-11-22T12:45:02.737Z,3552.00
2018-11-22T12:46:02.765Z,3512.00
2018-11-22T12:47:02.773Z,3596.00
2018-11-22T12:48:02.794Z,3680.00
2018-11-22T12:49:02.822Z,3860.00
2018-11-22T12:50:02.838Z,4112.00
2018-11-22T12:51:02.856Z,4240.00
2018-11-22T12:52:02.875Z,4736.00
2018-11-22T12:53:02.905Z,5052.00
2018-11-22T12:54:02.908Z,5252.00
2018-11-22T12:55:02.926Z,5412.00
2018-11-22T12:56:02.944Z,6468.00
2018-11-22T12:57:02.964Z,6856.00
2018-11-22T12:58:03.020Z,7208.00
2018-11-22T12:59:03.008Z,7492.00
2018-11-22T13:00:03.027Z,7052.00
2018-11-22T13:01:03.041Z,7964.00
2018-11-22T13:02:03.062Z,6008.00
2018-11-22T13:03:03.089Z,10008.00
2018-11-22T13:04:03.141Z,8964.00
2018-11-22T13:05:03.120Z,7672.00
2018-11-22T13:06:03.139Z,7684.00
2018-11-22T13:07:03.157Z,9428.00
2018-11-22T13:08:03.178Z,7136.00
2018-11-22T13:09:03.195Z,7248.00
2018-11-22T13:10:03.264Z,8676.00
2018-11-22T13:11:03.233Z,7904.00
2018-11-22T13:12:03.256Z,7836.00